Portada
METAR-TAF:

METAR-TAF

Aeroports :

Tiruchirappal·li, Índia

latitud: 10-46N, longitud: 078-43E, altitud: 85 m

Observació

L'informe es va fer fa 54 minuts, a les 06:00 UTC
Vent 6 kt del Sud
Temperatura 37°C
Humitat 50%
Pressió 1009 hPa
Visibilitat: 8000 m
Núvols disperses a una alçada de 1800 ft

METAR: VOTR 310600Z 18006KT 8000 SCT018 37/25 Q1009 NOSIG

Hora: 12:24 (06:54 UTC)

Pronòstic

L'informe es va fer fa 1 hora i 54 minuts, a les 05:00 UTC
Pronòstic vàlid del 31 a les 06 UTC al 01 a les 12 UTC
Vent 5 kt del Sud
Visibilitat: 6000 m
Escasses núvols a una alçada de 2000 ft
Núvols disperses a una alçada de 10000 ft

TAF: VOTR 310500Z 3106/0112 18005KT 6000 FEW020 SCT100

Observacions i pronòstics meteorològics de més de 4000 aeroports (METAR i TAF).

Les estacions disponibles són els punts grocs i vermells al mapa.

Posi el ratolí al punt desitjat per veure el nom de l'estació.

Feu clic per veure les observacions i els pronòstics meteorològics.

Per canviar el mapa: feu clic els botons verds amb una creu de color negre per apropar; al botó verd amb un guió per allunyar la imatge; o en les fletxes verdes per a mapes adjacents.


METAR-TAF: